Spangdahlem Air Base ETAD

Flugplatz Daten

Name: Spangdahlem Air Base

Ident: ETAD

Lat: 49,97269821

Long: 6,692500114

Platzhöhe: 1197 ft

IataCode: SPM

City: Trier

Homepage: http://www.spangdahlem.af.mil/

Metar

2022/08/14 05:56
ETAD 140556Z AUTO 07006KT 9999 CLR 20/12 A2983 RMK AO2 SLP074 T01960121 10197 20158 57011

Taf

2022/08/14 04:03
TAF TAF ETAD 140400Z 1404/1510 07007KT 9999 FEW300 QNH2985INS
BECMG 1410/1411 12010G15KT 9999 FEW200 QNH2970INS
BECMG 1417/1418 15007KT 9999 FEW150 QNH2966INS
BECMG 1500/1501 23009KT 9999 BKN050 QNH2965INS
BECMG 1505/1506 24010G20KT 8000 -SHRA BKN010 OVC015 QNH2966INS
TEMPO 1506/1510 6000 RA OVC007 TX31/1414Z TN16/1404Z
Gewünschte Webcam nicht vorhanden? Dann fügen Sie eine hinzu. Sie wird dann so schnell wie möglich freigeschaltet
Url: Title: